Time;durP1;ratioP1;P1;durP2;ratioP2;P2;SDS_P1;SDS_P2;PMS_P1;PMS_P2;Temp;Humidity;BMP_temperature;BMP_pressure;BME280_temperature;BME280_humidity;BME280_pressure;Samples;Min_cycle;Max_cycle;Signal;HPM_P1;HPM_P2
2021/09/11 00:02:19;;;;;;;100.35;18.13;;;;;;;21.32;66.03;99694.78;6246947;23;20055;-78
2021/09/11 00:04:50;;;;;;;64.78;19.02;;;;;;;21.31;66.92;99694.94;6219970;23;20461;-78
2021/09/11 00:07:17;;;;;;;135.93;21.15;;;;;;;21.32;66.26;99697.47;6220154;23;20027;-78
2021/09/11 00:09:43;;;;;;;95.75;20.42;;;;;;;21.34;66.60;99695.44;6219902;23;20022;-78
2021/09/11 00:12:19;;;;;;;52.55;20.23;;;;;;;21.32;67.38;99699.28;6220083;23;20020;-78
2021/09/11 00:14:46;;;;;;;32.53;18.65;;;;;;;21.35;66.50;99705.16;6220126;23;20020;-78
2021/09/11 00:17:13;;;;;;;30.17;19.98;;;;;;;21.38;66.76;99705.84;6219881;23;20371;-78
2021/09/11 00:19:39;;;;;;;21.55;16.50;;;;;;;21.39;66.76;99705.69;6219965;23;20030;-78
2021/09/11 00:22:08;;;;;;;18.05;14.80;;;;;;;21.39;67.37;99705.69;6220354;23;20363;-78
2021/09/11 00:24:35;;;;;;;18.30;13.20;;;;;;;21.41;66.75;99690.28;6219666;23;20024;-78
2021/09/11 00:27:02;;;;;;;16.55;11.50;;;;;;;21.44;66.84;99695.34;6219934;23;20028;-79
2021/09/11 00:29:29;;;;;;;11.52;8.85;;;;;;;21.47;66.74;99700.38;6220087;23;20751;-78
2021/09/11 00:32:04;;;;;;;14.43;12.65;;;;;;;21.46;68.10;99701.34;6221266;23;20020;-78
2021/09/11 00:34:31;;;;;;;20.42;16.73;;;;;;;21.51;66.92;99692.84;6246382;23;20078;-78
2021/09/11 00:36:58;;;;;;;25.35;19.52;;;;;;;21.53;67.01;99698.06;6220035;23;20032;-78
2021/09/11 00:39:25;;;;;;;27.02;20.75;;;;;;;21.54;67.00;99700.56;6219852;23;20020;-78
2021/09/11 00:41:52;;;;;;;29.02;20.13;;;;;;;21.55;67.06;99696.03;6219599;23;20032;-78
2021/09/11 00:44:27;;;;;;;34.55;21.17;;;;;;;21.52;67.92;99691.84;6219906;23;20028;-78
2021/09/11 00:46:54;;;;;;;34.53;21.27;;;;;;;21.55;67.16;99693.38;6219512;23;20024;-78
2021/09/11 00:49:21;;;;;;;27.42;21.98;;;;;;;21.57;67.42;99689.53;6219676;23;20016;-78
2021/09/11 00:51:50;;;;;;;28.90;22.77;;;;;;;21.57;68.01;99696.75;6219855;23;20332;-78
2021/09/11 00:54:17;;;;;;;28.38;23.65;;;;;;;21.58;67.49;99685.03;6220045;23;20028;-78
2021/09/11 00:56:44;;;;;;;27.52;23.15;;;;;;;21.59;67.42;99686.69;6220030;23;20050;-78
2021/09/11 00:59:16;;;;;;;27.58;22.77;;;;;;;21.59;68.23;99689.38;6219432;23;20020;-78
2021/09/11 01:01:43;;;;;;;32.08;25.02;;;;;;;21.64;67.42;99683.53;6219846;23;20070;-78
2021/09/11 01:04:10;;;;;;;26.90;23.38;;;;;;;21.64;67.40;99680.84;6219560;23;20024;-78
2021/09/11 01:06:41;;;;;;;27.13;24.08;;;;;;;21.64;68.17;99689.72;6219326;23;20020;-78
2021/09/11 01:09:08;;;;;;;26.75;23.85;;;;;;;21.66;67.44;99671.66;6220076;23;20024;-78
2021/09/11 01:11:46;;;;;;;26.48;22.00;;;;;;;21.64;68.13;99679.00;6219588;23;20020;-78
2021/09/11 01:14:13;;;;;;;26.42;22.88;;;;;;;21.67;67.49;99676.00;6219750;23;20359;-79
2021/09/11 01:16:39;;;;;;;27.95;22.48;;;;;;;21.69;67.38;99678.53;6219867;23;20455;-78
2021/09/11 01:19:06;;;;;;;29.20;22.75;;;;;;;21.70;67.33;99682.88;6219940;23;20051;-78
2021/09/11 01:21:34;;;;;;;25.50;22.20;;;;;;;21.70;67.42;99683.72;6219475;23;20024;-78
2021/09/11 01:24:01;;;;;;;24.20;20.67;;;;;;;21.70;67.46;99673.00;6219687;23;20024;-78
2021/09/11 01:26:28;;;;;;;23.38;20.52;;;;;;;21.69;67.14;99676.69;6219903;23;20435;-79
2021/09/11 01:28:56;;;;;;;24.45;21.50;;;;;;;21.67;67.58;99684.03;6219828;23;20024;-78
2021/09/11 01:31:23;;;;;;;25.33;21.48;;;;;;;21.66;67.20;99685.06;6219729;23;20028;-78
2021/09/11 01:33:50;;;;;;;24.45;20.60;;;;;;;21.64;67.41;99695.06;6219727;23;20381;-78
2021/09/11 01:36:17;;;;;;;23.67;20.45;;;;;;;21.60;67.46;99691.88;6219368;23;20028;-78
2021/09/11 01:38:44;;;;;;;24.10;19.50;;;;;;;21.59;67.45;99687.53;6219942;23;20339;-78
2021/09/11 01:41:11;;;;;;;22.65;19.42;;;;;;;21.59;67.50;99692.91;6219263;23;20020;-78
2021/09/11 01:43:39;;;;;;;20.95;18.67;;;;;;;21.58;67.51;99693.06;6219306;23;20020;-78
2021/09/11 01:46:06;;;;;;;21.20;17.70;;;;;;;21.58;67.48;99685.88;6219687;23;20028;-78
2021/09/11 01:48:33;;;;;;;22.63;18.92;;;;;;;21.59;67.54;99694.72;6219859;23;20028;-78
2021/09/11 01:51:00;;;;;;;23.08;19.92;;;;;;;21.58;67.35;99685.03;6219320;23;20023;-79
2021/09/11 01:53:27;;;;;;;20.10;17.98;;;;;;;21.57;67.48;99689.53;6219747;23;20339;-78
2021/09/11 01:55:54;;;;;;;20.38;18.20;;;;;;;21.55;67.45;99686.19;6219445;23;20031;-78
2021/09/11 01:58:20;;;;;;;25.30;19.98;;;;;;;21.54;67.49;99686.34;6220173;23;20473;-78
2021/09/11 02:00:47;;;;;;;20.92;18.73;;;;;;;21.53;67.32;99690.84;6220914;23;20023;-78
2021/09/11 02:03:16;;;;;;;21.15;18.30;;;;;;;21.50;67.86;99683.16;6221503;23;20028;-78
2021/09/11 02:05:43;;;;;;;23.02;18.20;;;;;;;21.50;67.44;99684.97;6221265;23;20028;-78
2021/09/11 02:08:09;;;;;;;22.52;18.27;;;;;;;21.49;67.64;99692.16;6221049;23;20032;-78
2021/09/11 02:10:36;;;;;;;19.33;17.23;;;;;;;21.48;67.51;99690.50;6220976;23;20024;-78
2021/09/11 02:13:08;;;;;;;23.85;18.40;;;;;;;21.44;68.14;99687.31;6221580;23;20055;-78
2021/09/11 02:15:35;;;;;;;22.05;17.98;;;;;;;21.45;67.55;99688.13;6221214;23;20024;-78
2021/09/11 02:18:02;;;;;;;22.13;18.80;;;;;;;21.43;67.47;99688.31;6220862;23;20058;-78
2021/09/11 02:20:28;;;;;;;21.83;19.10;;;;;;;21.42;67.67;99688.47;6220617;23;20021;-78
2021/09/11 02:22:55;;;;;;;23.63;19.27;;;;;;;21.40;67.58;99691.31;6220866;23;20027;-79
2021/09/11 02:25:25;;;;;;;23.08;19.38;;;;;;;21.35;68.23;99691.78;6221201;23;20382;-78
2021/09/11 02:27:52;;;;;;;22.35;19.40;;;;;;;21.35;67.68;99691.78;6221535;23;20028;-78
2021/09/11 02:30:18;;;;;;;20.77;17.73;;;;;;;21.33;67.77;99685.75;6221107;23;20016;-78
2021/09/11 02:32:45;;;;;;;23.30;17.45;;;;;;;21.32;67.67;99691.25;6221081;23;20046;-78
2021/09/11 02:35:16;;;;;;;21.10;18.27;;;;;;;21.28;68.18;99690.75;6221459;23;20031;-79
2021/09/11 02:37:42;;;;;;;20.90;17.55;;;;;;;21.28;67.68;99695.25;6221156;23;20028;-78
2021/09/11 02:40:10;;;;;;;18.33;16.40;;;;;;;21.26;67.54;99683.88;6220985;23;20447;-78
2021/09/11 02:42:36;;;;;;;18.05;15.90;;;;;;;21.23;67.56;99679.66;6221054;23;20024;-78
2021/09/11 02:45:04;;;;;;;18.23;15.05;;;;;;;21.20;67.49;99690.69;6220510;23;20028;-78
2021/09/11 02:47:37;;;;;;;20.00;15.68;;;;;;;21.15;68.00;99691.16;6220928;23;20028;-78
2021/09/11 02:50:04;;;;;;;19.73;14.88;;;;;;;21.14;67.49;99688.63;6220488;23;20023;-78
2021/09/11 02:52:30;;;;;;;15.88;14.13;;;;;;;21.11;67.37;99689.81;6220285;23;20035;-78
2021/09/11 02:54:57;;;;;;;20.20;15.05;;;;;;;21.08;67.64;99685.59;6219702;23;20055;-78
2021/09/11 02:57:24;;;;;;;16.80;14.77;;;;;;;21.07;67.66;99694.63;6220710;23;20035;-78
2021/09/11 02:59:56;;;;;;;16.17;13.93;;;;;;;21.04;68.33;99692.28;6220420;23;20020;-78
2021/09/11 03:02:22;;;;;;;15.75;13.77;;;;;;;21.06;67.82;99694.78;6220912;23;20435;-78
2021/09/11 03:04:49;;;;;;;15.80;13.20;;;;;;;21.05;67.67;99696.63;6220935;23;20432;-78
2021/09/11 03:07:19;;;;;;;18.00;14.23;;;;;;;21.03;68.21;99695.09;6247430;23;20486;-78
2021/09/11 03:09:46;;;;;;;20.40;14.52;;;;;;;21.03;67.86;99692.44;6220577;23;20024;-78
2021/09/11 03:12:12;;;;;;;15.93;13.48;;;;;;;21.02;67.99;99690.75;6220520;23;20024;-78
2021/09/11 03:14:43;;;;;;;20.08;15.43;;;;;;;21.00;68.67;99692.75;6221019;23;20054;-78
2021/09/11 03:17:10;;;;;;;17.75;14.25;;;;;;;21.00;68.03;99692.75;6221742;23;20458;-79
2021/09/11 03:19:41;;;;;;;15.52;13.95;;;;;;;20.98;68.59;99689.38;6220409;23;20312;-78
2021/09/11 03:22:07;;;;;;;16.15;14.15;;;;;;;20.99;68.15;99688.38;6220461;23;20435;-78
2021/09/11 03:24:34;;;;;;;15.88;13.73;;;;;;;20.99;68.14;99691.06;6220082;23;20024;-78
2021/09/11 03:27:03;;;;;;;16.90;14.82;;;;;;;20.96;68.77;99695.75;6220370;23;20031;-78
2021/09/11 03:29:30;;;;;;;17.42;14.55;;;;;;;20.99;68.42;99701.75;6220116;23;20031;-78
2021/09/11 03:31:56;;;;;;;17.95;15.85;;;;;;;20.98;68.33;99703.63;6220763;23;20066;-78
2021/09/11 03:34:23;;;;;;;18.48;15.60;;;;;;;20.99;68.30;99704.44;6220543;23;20324;-78
2021/09/11 03:36:50;;;;;;;21.42;16.70;;;;;;;20.98;68.35;99703.63;6220407;23;20355;-79
2021/09/11 03:39:17;;;;;;;18.13;16.20;;;;;;;20.98;68.29;99705.44;6220648;23;20443;-78
2021/09/11 03:41:43;;;;;;;21.42;16.80;;;;;;;20.97;68.24;99696.56;6246684;23;20031;-79
2021/09/11 03:44:10;;;;;;;18.60;16.45;;;;;;;20.96;68.47;99711.78;6220307;23;20355;-78
2021/09/11 03:46:37;;;;;;;19.85;17.73;;;;;;;20.96;68.58;99710.94;6220425;23;20443;-79
2021/09/11 03:49:03;;;;;;;21.73;17.27;;;;;;;20.96;68.37;99708.28;6220555;23;20031;-78
2021/09/11 03:51:31;;;;;;;17.98;16.02;;;;;;;20.95;68.56;99715.47;6220030;23;20020;-78
2021/09/11 03:54:04;;;;;;;23.67;16.52;;;;;;;20.94;69.20;99715.63;6220251;23;20339;-78
2021/09/11 03:56:31;;;;;;;18.27;14.88;;;;;;;20.97;68.64;99715.28;6220436;23;20028;-78
2021/09/11 03:58:57;;;;;;;19.58;16.42;;;;;;;20.98;68.65;99719.66;6220022;23;20031;-78
2021/09/11 04:01:27;;;;;;;19.50;17.17;;;;;;;20.96;69.07;99714.47;6219769;23;20021;-78
2021/09/11 04:03:54;;;;;;;19.15;16.85;;;;;;;20.99;68.61;99718.66;6219935;23;20028;-78
2021/09/11 04:06:21;;;;;;;18.15;15.93;;;;;;;20.99;68.58;99713.31;6220811;23;20103;-79
2021/09/11 04:08:49;;;;;;;16.90;15.18;;;;;;;21.01;68.64;99722.00;6220746;23;20347;-78
2021/09/11 04:11:16;;;;;;;19.38;16.30;;;;;;;21.02;68.61;99718.38;6220132;23;20043;-78
2021/09/11 04:13:42;;;;;;;20.83;16.50;;;;;;;21.03;68.63;99724.53;6220109;23;20020;-78
2021/09/11 04:16:09;;;;;;;20.45;15.40;;;;;;;21.04;68.59;99721.72;6219865;23;20020;-78
2021/09/11 04:18:36;;;;;;;17.92;15.70;;;;;;;21.06;68.35;99726.91;6220445;23;20099;-78
2021/09/11 04:21:11;;;;;;;20.15;15.55;;;;;;;21.04;68.91;99731.59;6219701;23;20024;-79
2021/09/11 04:23:37;;;;;;;20.27;15.65;;;;;;;21.08;68.41;99732.94;6219973;23;20035;-78
2021/09/11 04:26:04;;;;;;;15.85;14.20;;;;;;;21.08;68.41;99730.25;6220111;23;20443;-79
2021/09/11 04:28:32;;;;;;;17.90;15.65;;;;;;;21.08;68.18;99723.06;6219905;23;20354;-78
2021/09/11 04:30:58;;;;;;;16.63;14.75;;;;;;;21.09;68.13;99719.41;6219733;23;20023;-78
2021/09/11 04:33:25;;;;;;;19.35;15.27;;;;;;;21.08;67.96;99725.75;6220245;23;20333;-78
2021/09/11 04:35:55;;;;;;;18.98;15.07;;;;;;;21.06;68.35;99725.09;6219719;23;20028;-78
2021/09/11 04:38:22;;;;;;;16.42;14.68;;;;;;;21.08;67.89;99723.06;6219787;23;20034;-78
2021/09/11 04:40:49;;;;;;;19.30;16.20;;;;;;;21.08;68.01;99719.53;6246875;23;20020;-78
2021/09/11 04:43:17;;;;;;;18.42;16.23;;;;;;;21.05;67.72;99720.69;6220106;23;20511;-78
2021/09/11 04:45:46;;;;;;;17.20;14.48;;;;;;;21.04;67.85;99726.25;6219837;23;20638;-78
2021/09/11 04:48:13;;;;;;;16.73;14.57;;;;;;;21.02;67.85;99733.56;6219989;23;20024;-78
2021/09/11 04:50:44;;;;;;;18.20;15.65;;;;;;;20.99;68.13;99723.16;6219593;23;20054;-79
2021/09/11 04:53:10;;;;;;;19.33;15.52;;;;;;;21.00;67.84;99735.56;6219959;23;20046;-78
2021/09/11 04:55:37;;;;;;;17.33;15.32;;;;;;;20.98;67.82;99733.06;6219842;23;20050;-78
2021/09/11 04:58:05;;;;;;;16.15;14.20;;;;;;;20.98;67.75;99734.88;6219992;23;20028;-78
2021/09/11 05:00:32;;;;;;;18.50;15.68;;;;;;;20.96;67.79;99732.34;6219451;23;20031;-78
2021/09/11 05:03:00;;;;;;;18.65;15.32;;;;;;;20.96;67.83;99729.69;6219930;23;20028;-78
2021/09/11 05:05:27;;;;;;;16.38;14.68;;;;;;;20.96;67.73;99724.31;6219455;23;20028;-78
2021/09/11 05:07:55;;;;;;;18.45;14.13;;;;;;;20.94;67.67;99732.50;6246514;23;20020;-78
2021/09/11 05:10:22;;;;;;;16.30;14.10;;;;;;;20.94;67.61;99734.34;6219467;23;20017;-78
2021/09/11 05:12:49;;;;;;;15.45;13.82;;;;;;;20.93;67.43;99738.03;6219349;23;20024;-78
2021/09/11 05:15:26;;;;;;;16.48;14.63;;;;;;;20.89;67.88;99740.16;6220275;23;20028;-78
2021/09/11 05:17:53;;;;;;;16.92;14.30;;;;;;;20.92;67.39;99736.34;6219932;23;20023;-78
2021/09/11 05:20:21;;;;;;;16.85;13.73;;;;;;;20.89;67.41;99745.50;6219351;23;20020;-78
2021/09/11 05:22:51;;;;;;;18.38;13.80;;;;;;;20.87;67.77;99734.13;6219475;23;20347;-78
2021/09/11 05:25:18;;;;;;;15.23;13.20;;;;;;;20.88;67.49;99743.84;6219559;23;20462;-78
2021/09/11 05:27:45;;;;;;;16.27;14.23;;;;;;;20.86;67.57;99736.94;6219631;23;20020;-78
2021/09/11 05:30:12;;;;;;;16.15;14.07;;;;;;;20.84;67.47;99745.13;6219738;23;20017;-78
2021/09/11 05:32:38;;;;;;;15.65;12.88;;;;;;;20.82;67.65;99761.31;6219852;23;20028;-78
2021/09/11 05:35:07;;;;;;;18.45;13.70;;;;;;;20.79;67.73;99758.13;6221289;23;20352;-78
2021/09/11 05:37:33;;;;;;;17.00;14.48;;;;;;;20.80;67.66;99765.13;6221174;23;20020;-79
2021/09/11 05:40:00;;;;;;;22.58;15.68;;;;;;;20.79;67.68;99764.28;6247814;23;20034;-79
2021/09/11 05:42:30;;;;;;;20.63;14.57;;;;;;;20.78;67.66;99767.16;6221649;23;20407;-78
2021/09/11 05:44:59;;;;;;;18.00;14.98;;;;;;;20.79;67.73;99758.94;6221359;23;20032;-79
2021/09/11 05:47:27;;;;;;;17.23;13.43;;;;;;;20.78;67.64;99769.81;6221459;23;20028;-79
2021/09/11 05:49:53;;;;;;;16.58;13.52;;;;;;;20.79;67.52;99774.16;6248418;23;20343;-78
2021/09/11 05:52:20;;;;;;;15.38;12.80;;;;;;;20.80;67.37;99770.50;6221577;23;20020;-80
2021/09/11 05:54:48;;;;;;;15.82;13.20;;;;;;;20.79;67.20;99776.84;6221180;23;20028;-80
2021/09/11 05:57:14;;;;;;;15.85;12.73;;;;;;;20.79;66.93;99771.50;6221571;23;20050;-80
2021/09/11 05:59:41;;;;;;;17.25;12.73;;;;;;;20.78;66.91;99772.50;6221108;23;20020;-79
2021/09/11 06:02:11;;;;;;;15.43;12.60;;;;;;;20.75;67.00;99772.78;6221165;23;20020;-80
2021/09/11 06:04:38;;;;;;;15.07;12.18;;;;;;;20.77;66.90;99768.97;6220993;23;20098;-80
2021/09/11 06:07:05;;;;;;;15.05;12.68;;;;;;;20.77;66.79;99765.44;6221141;23;20020;-80
2021/09/11 06:09:33;;;;;;;16.55;12.95;;;;;;;20.75;66.91;99764.78;6221064;23;20032;-80
2021/09/11 06:12:00;;;;;;;18.13;13.23;;;;;;;20.76;66.93;99767.28;6221012;23;20325;-80
2021/09/11 06:14:27;;;;;;;14.45;12.80;;;;;;;20.75;67.01;99762.91;6220965;23;20099;-80
2021/09/11 06:16:58;;;;;;;14.55;12.30;;;;;;;20.73;67.26;99772.09;6221277;23;20351;-80
2021/09/11 06:19:25;;;;;;;14.75;11.68;;;;;;;20.76;66.45;99778.00;6221360;23;20032;-80
2021/09/11 06:21:52;;;;;;;14.00;11.93;;;;;;;20.75;66.56;99770.13;6221105;23;20459;-80
2021/09/11 06:24:23;;;;;;;16.17;12.38;;;;;;;20.73;66.60;99780.97;6221527;23;20105;-79
2021/09/11 06:26:50;;;;;;;13.95;11.23;;;;;;;20.71;66.20;99769.59;6220829;23;20028;-80
2021/09/11 06:29:16;;;;;;;13.57;11.40;;;;;;;20.67;66.11;99774.38;6248197;23;20347;-80
2021/09/11 06:31:57;;;;;;;14.73;12.05;;;;;;;20.59;66.21;99776.97;6221271;23;20435;-81
2021/09/11 06:34:24;;;;;;;17.30;11.88;;;;;;;20.60;66.04;99780.50;6220799;23;20020;-79
2021/09/11 06:36:51;;;;;;;18.25;12.05;;;;;;;20.55;66.24;99781.81;6220894;23;20020;-80
2021/09/11 06:39:21;;;;;;;14.40;12.00;;;;;;;20.51;66.25;99782.25;6220689;23;20020;-80
2021/09/11 06:41:47;;;;;;;16.17;11.82;;;;;;;20.49;66.56;99781.56;6221056;23;20031;-80
2021/09/11 06:44:14;;;;;;;16.70;13.38;;;;;;;20.46;66.54;99780.06;6220484;23;20039;-79
2021/09/11 06:46:42;;;;;;;17.52;13.50;;;;;;;20.44;66.68;99784.69;6221106;23;20324;-80
2021/09/11 06:49:08;;;;;;;21.88;15.68;;;;;;;20.41;66.42;99777.81;6220683;23;20024;-80
2021/09/11 06:51:35;;;;;;;22.20;17.00;;;;;;;20.39;66.30;99779.81;6220772;23;20028;-80
2021/09/11 06:54:02;;;;;;;22.25;17.55;;;;;;;20.36;66.53;99774.75;6220911;23;20032;-79
2021/09/11 06:56:28;;;;;;;22.17;17.90;;;;;;;20.34;66.54;99778.59;6247566;23;20342;-80
2021/09/11 06:58:55;;;;;;;25.60;17.73;;;;;;;20.33;66.60;99782.25;6220725;23;20028;-79
2021/09/11 07:01:23;;;;;;;23.15;17.92;;;;;;;20.31;66.86;99787.75;6220831;23;20024;-80
2021/09/11 07:03:50;;;;;;;25.33;17.65;;;;;;;20.30;66.84;99794.09;6220949;23;20028;-79
2021/09/11 07:06:17;;;;;;;22.88;17.55;;;;;;;20.29;66.77;99785.22;6220678;23;20056;-79
2021/09/11 07:08:44;;;;;;;23.45;16.77;;;;;;;20.29;66.79;99787.03;6220684;23;20028;-80
2021/09/11 07:11:13;;;;;;;21.55;16.83;;;;;;;20.28;67.06;99788.03;6220920;23;20031;-79
2021/09/11 07:13:40;;;;;;;19.23;16.33;;;;;;;20.31;67.06;99793.91;6221115;23;20023;-79
2021/09/11 07:16:16;;;;;;;18.30;15.75;;;;;;;20.31;67.37;99795.75;6220577;23;20020;-80
2021/09/11 07:18:43;;;;;;;22.05;16.23;;;;;;;20.38;67.16;99809.38;6220880;23;20028;-79
2021/09/11 07:21:09;;;;;;;22.48;16.67;;;;;;;20.41;67.15;99807.22;6220022;23;20024;-79
2021/09/11 07:23:36;;;;;;;21.63;16.98;;;;;;;20.48;67.12;99812.00;6220541;23;20020;-79
2021/09/11 07:26:07;;;;;;;20.15;14.07;;;;;;;20.50;67.15;99813.50;6220385;23;20350;-79
2021/09/11 07:28:34;;;;;;;17.92;13.95;;;;;;;20.57;67.46;99816.41;6220364;23;20024;-79
2021/09/11 07:31:00;;;;;;;18.33;14.25;;;;;;;20.63;67.65;99823.81;6220548;23;20024;-79
2021/09/11 07:33:31;;;;;;;16.80;13.32;;;;;;;20.70;67.69;99826.72;6220691;23;20050;-79
2021/09/11 07:35:58;;;;;;;14.80;11.75;;;;;;;20.78;66.85;99820.66;6220346;23;20439;-79
2021/09/11 07:38:24;;;;;;;16.13;11.73;;;;;;;20.86;66.61;99830.56;6220552;23;20024;-79
2021/09/11 07:40:57;;;;;;;11.68;10.00;;;;;;;20.88;65.79;99829.44;6220193;23;20024;-79
2021/09/11 07:43:24;;;;;;;13.80;11.20;;;;;;;20.94;65.99;99828.00;6220546;23;20470;-79
2021/09/11 07:45:51;;;;;;;12.30;10.25;;;;;;;20.98;66.07;99829.38;6220298;23;20027;-79
2021/09/11 07:48:17;;;;;;;12.57;9.93;;;;;;;21.01;65.76;99828.22;6220523;23;20454;-79
2021/09/11 07:50:44;;;;;;;14.88;9.73;;;;;;;21.04;65.62;99844.00;6220232;23;20031;-79
2021/09/11 07:53:11;;;;;;;11.52;9.75;;;;;;;21.06;65.33;99837.47;6220127;23;20020;-79
2021/09/11 07:55:37;;;;;;;11.35;9.75;;;;;;;21.09;65.30;99834.47;6246566;23;20351;-79
2021/09/11 07:58:04;;;;;;;10.93;9.77;;;;;;;21.14;65.31;99839.38;6220342;23;20443;-79
2021/09/11 08:00:40;;;;;;;11.32;9.45;;;;;;;21.13;64.69;99835.03;6220373;23;20028;-79
2021/09/11 08:03:07;;;;;;;10.73;9.70;;;;;;;21.20;64.62;99836.06;6220733;23;20024;-79
2021/09/11 08:05:36;;;;;;;10.88;9.52;;;;;;;21.22;64.54;99841.28;6220358;23;20339;-80
2021/09/11 08:08:07;;;;;;;10.13;8.82;;;;;;;21.24;64.07;99846.47;6220197;23;20028;-79
2021/09/11 08:10:34;;;;;;;11.25;9.02;;;;;;;21.27;64.36;99844.31;6220300;23;20020;-80
2021/09/11 08:13:00;;;;;;;11.77;8.57;;;;;;;21.28;63.98;99834.47;6219917;23;20019;-79
2021/09/11 08:15:30;;;;;;;9.73;7.97;;;;;;;21.27;63.94;99846.16;6220278;23;20321;-79
2021/09/11 08:17:57;;;;;;;12.20;8.30;;;;;;;21.30;64.31;99843.19;6220097;23;20020;-79
2021/09/11 08:20:24;;;;;;;10.45;8.38;;;;;;;21.33;64.46;99835.69;6220339;23;20035;-79
2021/09/11 08:23:06;;;;;;;9.70;7.93;;;;;;;21.35;64.51;99847.06;6219956;23;20020;-79
2021/09/11 08:25:33;;;;;;;11.63;7.97;;;;;;;21.48;64.62;99849.34;6219751;23;20028;-79
2021/09/11 08:28:00;;;;;;;8.30;7.55;;;;;;;21.56;63.91;99853.06;6219811;23;20099;-79
2021/09/11 08:30:39;;;;;;;8.93;8.02;;;;;;;21.56;63.77;99866.44;6219696;23;20024;-79
2021/09/11 08:33:15;;;;;;;8.68;7.78;;;;;;;21.61;63.52;99867.66;6220280;23;20024;-79
2021/09/11 08:35:42;;;;;;;10.10;8.27;;;;;;;21.66;63.28;99869.03;6219997;23;20032;-79
2021/09/11 08:38:09;;;;;;;12.73;8.25;;;;;;;21.66;62.74;99874.38;6219686;23;20024;-79
2021/09/11 08:40:41;;;;;;;8.85;8.00;;;;;;;21.63;62.48;99883.59;6220047;23;20104;-80
2021/09/11 08:43:08;;;;;;;10.27;9.05;;;;;;;21.63;62.18;99880.91;6219727;23;20034;-79
2021/09/11 08:45:35;;;;;;;10.52;8.95;;;;;;;21.60;62.29;99889.25;6219714;23;20028;-79
2021/09/11 08:48:03;;;;;;;9.43;8.32;;;;;;;21.55;62.28;99886.19;6220256;23;20443;-79
2021/09/11 08:50:30;;;;;;;10.15;8.68;;;;;;;21.51;62.66;99899.06;6220077;23;20035;-79
2021/09/11 08:52:59;;;;;;;12.40;8.80;;;;;;;21.46;62.55;99898.69;6219724;23;20051;-79
2021/09/11 08:55:26;;;;;;;10.80;9.75;;;;;;;21.43;62.62;99902.53;6219326;23;20020;-79
2021/09/11 08:58:04;;;;;;;11.48;9.65;;;;;;;21.35;62.56;99899.78;6220039;23;20028;-79
2021/09/11 09:00:45;;;;;;;14.02;10.00;;;;;;;21.32;62.57;99900.09;6219559;23;20020;-79
2021/09/11 09:03:40;;;;;;;12.07;9.52;;;;;;;21.28;62.98;99899.56;6219673;23;20021;-79
2021/09/11 09:06:25;;;;;;;13.27;10.30;;;;;;;21.28;62.84;99890.69;6220055;23;20439;-79
2021/09/11 09:09:12;;;;;;;11.48;10.23;;;;;;;21.27;63.25;99903.22;6220484;23;20031;-79
2021/09/11 09:11:43;;;;;;;11.52;9.75;;;;;;;21.34;63.52;99903.44;6222018;23;20099;-79
2021/09/11 09:14:18;;;;;;;12.48;10.07;;;;;;;21.42;63.74;99897.31;6221818;23;20462;-79
2021/09/11 09:16:50;;;;;;;15.27;10.10;;;;;;;21.52;63.88;99892.72;6222027;23;20465;-80
2021/09/11 09:19:19;;;;;;;12.02;9.27;;;;;;;21.63;64.29;99888.94;6221903;23;20020;-80
2021/09/11 09:21:48;;;;;;;10.93;9.75;;;;;;;21.77;64.48;99890.25;6221577;23;20020;-79
2021/09/11 09:24:30;;;;;;;12.93;9.75;;;;;;;21.90;64.58;99887.13;6221389;23;20034;-79
2021/09/11 09:27:03;;;;;;;10.73;9.00;;;;;;;22.08;64.24;99891.56;6221885;23;20020;-80
2021/09/11 09:29:33;;;;;;;13.05;8.63;;;;;;;22.26;63.97;99889.66;6222065;23;20024;-80
2021/09/11 09:32:00;;;;;;;12.27;9.02;;;;;;;22.40;63.06;99887.38;6221813;23;20466;-79
2021/09/11 09:34:42;;;;;;;14.35;9.23;;;;;;;22.49;62.21;99880.19;6221534;23;20058;-79
2021/09/11 09:37:13;;;;;;;10.82;8.82;;;;;;;22.61;62.25;99889.66;6221394;23;20020;-80
2021/09/11 09:39:46;;;;;;;10.68;8.77;;;;;;;22.68;61.81;99892.50;6221234;23;20027;-79
2021/09/11 09:42:14;;;;;;;12.10;9.45;;;;;;;22.76;61.72;99897.91;6221605;23;20467;-80
2021/09/11 09:44:54;;;;;;;11.73;9.43;;;;;;;22.79;61.47;99891.38;6221401;23;20043;-80
2021/09/11 09:47:39;;;;;;;11.15;8.90;;;;;;;22.84;61.26;99894.38;6221491;23;20024;-80
2021/09/11 09:50:11;;;;;;;12.07;7.95;;;;;;;22.92;61.11;99890.91;6221540;23;20465;-79
2021/09/11 09:52:39;;;;;;;14.38;7.85;;;;;;;22.95;60.89;99885.19;6221251;23;20016;-79
2021/09/11 09:55:15;;;;;;;10.15;7.32;;;;;;;22.94;60.92;99885.38;6221379;23;20056;-80
2021/09/11 09:57:43;;;;;;;9.60;7.50;;;;;;;22.96;60.86;99877.97;6221198;23;20020;-79
2021/09/11 10:00:10;;;;;;;9.10;6.43;;;;;;;22.95;60.62;99879.00;6221616;23;20050;-80
2021/09/11 10:02:39;;;;;;;10.30;7.43;;;;;;;22.92;60.71;99880.16;6221332;23;20024;-80
2021/09/11 10:05:07;;;;;;;9.85;7.40;;;;;;;22.90;60.61;99882.16;6221643;23;20407;-80
2021/09/11 10:07:34;;;;;;;8.13;6.68;;;;;;;22.88;60.58;99873.44;6247672;23;20020;-79
2021/09/11 10:10:07;;;;;;;9.63;7.38;;;;;;;22.84;59.98;99886.34;6220986;23;20032;-80
2021/09/11 10:12:41;;;;;;;9.27;7.10;;;;;;;22.84;59.82;99877.47;6221016;23;20025;-80
2021/09/11 10:15:43;;;;;;;9.32;6.90;;;;;;;22.78;60.63;99882.50;6221483;23;20331;-80
2021/09/11 10:18:32;;;;;;;8.10;6.50;;;;;;;22.76;60.62;99895.22;6220990;23;20024;-80
2021/09/11 10:21:17;;;;;;;8.05;6.68;;;;;;;22.73;60.55;99894.72;6220835;23;20070;-80
2021/09/11 10:23:57;;;;;;;8.50;6.50;;;;;;;22.72;60.39;99882.31;6220654;23;20027;-79
2021/09/11 10:26:47;;;;;;;9.57;7.07;;;;;;;22.70;60.43;99881.63;6220956;23;20027;-80
2021/09/11 10:29:32;;;;;;;8.20;6.70;;;;;;;22.71;60.22;99878.78;6220959;23;20024;-80
2021/09/11 10:32:13;;;;;;;9.07;6.63;;;;;;;22.76;60.52;99873.75;6221339;23;20518;-79
2021/09/11 10:34:54;;;;;;;;;;;;;;;22.86;61.37;99875.44;6101972;23;20073;-80
2021/09/11 10:37:28;;;;;;;7.25;5.95;;;;;;;22.99;60.20;99878.47;6125329;23;19927;-80
2021/09/11 10:40:35;;;;;;;10.13;5.90;;;;;;;23.02;60.07;99875.47;6125399;23;20457;-80
2021/09/11 10:43:03;;;;;;;7.72;6.07;;;;;;;23.14;60.05;99878.66;6125276;23;20025;-80
2021/09/11 10:45:45;;;;;;;9.38;6.47;;;;;;;23.13;59.72;99878.81;6124989;23;20030;-80
2021/09/11 10:48:54;;;;;;;6.68;5.63;;;;;;;23.12;59.90;99869.94;6125268;23;20068;-80
2021/09/11 10:51:35;;;;;;;6.25;5.65;;;;;;;23.15;59.83;99874.13;6125096;23;20026;-80
2021/09/11 10:54:26;;;;;;;6.53;5.63;;;;;;;23.18;59.49;99881.88;6218381;23;20028;-80
2021/09/11 10:57:29;;;;;;;8.35;6.07;;;;;;;23.15;59.27;99883.03;6220690;23;20031;-79
2021/09/11 11:00:21;;;;;;;9.23;5.82;;;;;;;23.15;59.86;99876.81;6220891;23;20020;-79
2021/09/11 11:02:48;;;;;;;7.13;5.80;;;;;;;23.23;60.04;99878.66;6221013;23;20046;-79
2021/09/11 11:05:20;;;;;;;5.90;5.00;;;;;;;23.26;59.42;99871.13;6221105;23;20243;-80
2021/09/11 11:08:01;;;;;;;9.05;5.78;;;;;;;23.28;59.49;99870.94;6220765;23;20031;-79
2021/09/11 11:10:27;;;;;;;6.03;5.35;;;;;;;23.38;59.55;99870.81;6220882;23;20035;-80
2021/09/11 11:12:55;;;;;;;9.50;4.90;;;;;;;23.41;58.99;99868.59;6220765;23;20343;-80
2021/09/11 11:15:27;;;;;;;7.22;5.03;;;;;;;23.44;58.71;99867.47;6220425;23;20059;-79
2021/09/11 11:17:54;;;;;;;6.88;4.43;;;;;;;23.49;58.84;99875.84;6220835;23;20059;-79
2021/09/11 11:20:24;;;;;;;5.93;4.20;;;;;;;23.50;58.58;99874.81;6220758;23;20107;-79
2021/09/11 11:22:59;;;;;;;7.85;4.75;;;;;;;23.50;57.93;99874.81;6220360;23;20020;-80
2021/09/11 11:25:36;;;;;;;6.30;4.43;;;;;;;23.50;57.93;99872.13;6220022;23;20020;-80
2021/09/11 11:28:05;;;;;;;8.60;4.75;;;;;;;23.54;58.67;99872.63;6220445;23;20028;-80
2021/09/11 11:30:34;;;;;;;7.22;4.25;;;;;;;23.55;58.88;99877.84;6220409;23;20664;-80
2021/09/11 11:33:09;;;;;;;5.72;4.68;;;;;;;23.53;58.20;99869.13;6220170;23;20020;-80
2021/09/11 11:35:41;;;;;;;6.90;4.72;;;;;;;23.57;57.65;99874.97;6219915;23;20020;-80